Time;durP1;ratioP1;P1;durP2;ratioP2;P2;SDS_P1;SDS_P2;PMS_P1;PMS_P2;Temp;Humidity;BMP_temperature;BMP_pressure;BME280_temperature;BME280_humidity;BME280_pressure;Samples;Min_cycle;Max_cycle;Signal;HPM_P1;HPM_P2
2024/03/15 00:01:59;;;;;;;;;;;;;;;18.79;45.82;98946.00;10284971;28;886;-72
2024/03/15 00:06:56;;;;;;;;;;;;;;;18.77;45.82;98950.50;10284890;28;778;-71
2024/03/15 00:11:52;;;;;;;;;;;;;;;18.76;45.92;98955.91;10284692;28;810;-72
2024/03/15 00:16:51;;;;;;;;;;;;;;;18.75;45.89;98956.81;10284594;28;1955;-72
2024/03/15 00:21:47;;;;;;;;;;;;;;;18.74;45.78;98957.75;10285145;28;869;-72
2024/03/15 00:26:42;;;;;;;;;;;;;;;18.72;45.84;98957.81;10285071;28;909;-72
2024/03/15 00:31:39;;;;;;;;;;;;;;;18.71;46.04;98958.78;10284846;28;1120;-72
2024/03/15 00:36:35;;;;;;;;;;;;;;;18.70;45.88;98957.06;10284376;28;1902;-72
2024/03/15 00:41:32;;;;;;;;;;;;;;;18.69;45.94;98952.72;10284214;28;871;-72
2024/03/15 00:46:27;;;;;;;;;;;;;;;18.67;45.84;98951.97;10287038;28;869;-72
2024/03/15 00:51:23;;;;;;;;;;;;;;;18.67;45.91;98949.31;10292653;28;803;-72
2024/03/15 00:56:19;;;;;;;;;;;;;;;18.65;45.85;98937.16;10292015;28;1894;-71
2024/03/15 01:01:15;;;;;;;;;;;;;;;18.65;45.93;98937.16;10291817;28;937;-72
2024/03/15 01:06:13;;;;;;;;;;;;;;;18.63;45.98;98945.19;10291851;28;864;-72
2024/03/15 01:11:09;;;;;;;;;;;;;;;18.61;45.76;98926.78;10291345;28;942;-72
2024/03/15 01:16:05;;;;;;;;;;;;;;;18.60;45.87;98925.09;10291154;28;1918;-72
2024/03/15 01:21:02;;;;;;;;;;;;;;;18.59;45.95;98911.97;10290720;28;767;-72
2024/03/15 01:25:58;;;;;;;;;;;;;;;18.57;45.75;98908.56;10290814;28;914;-72
2024/03/15 01:30:54;;;;;;;;;;;;;;;18.56;45.76;98912.16;10291020;28;1167;-72
2024/03/15 01:35:50;;;;;;;;;;;;;;;18.55;45.87;98911.31;10291333;28;1988;-72
2024/03/15 01:40:46;;;;;;;;;;;;;;;18.54;45.81;98908.75;10289529;28;998;-71
2024/03/15 01:45:42;;;;;;;;;;;;;;;18.53;45.78;98899.16;10290237;28;884;-72
2024/03/15 01:50:38;;;;;;;;;;;;;;;18.51;45.96;98909.78;10290619;28;846;-72
2024/03/15 01:55:34;;;;;;;;;;;;;;;18.50;45.91;98908.13;10289213;28;1964;-72
2024/03/15 02:00:30;;;;;;;;;;;;;;;18.49;45.84;98902.91;10289482;28;856;-72
2024/03/15 02:05:26;;;;;;;;;;;;;;;18.49;45.78;98897.63;10289330;28;972;-72
2024/03/15 02:10:25;;;;;;;;;;;;;;;18.47;46.03;98874.00;10289005;28;1107;-71
2024/03/15 02:15:21;;;;;;;;;;;;;;;18.46;45.83;98876.72;10288913;28;1901;-72
2024/03/15 02:20:18;;;;;;;;;;;;;;;18.44;46.02;98876.78;10288222;28;697;-72
2024/03/15 02:25:14;;;;;;;;;;;;;;;18.44;45.98;98889.97;10289335;28;857;-72
2024/03/15 02:30:11;;;;;;;;;;;;;;;18.42;46.00;98893.66;10288144;28;1379;-72
2024/03/15 02:35:07;;;;;;;;;;;;;;;18.41;45.97;98898.09;10288116;28;1917;-72
2024/03/15 02:40:09;;;;;;;;;;;;;;;18.40;45.86;98897.25;10287895;28;1573;-72
2024/03/15 02:45:05;;;;;;;;;;;;;;;18.39;46.23;98898.19;10287874;28;907;-71
2024/03/15 02:50:01;;;;;;;;;;;;;;;18.38;45.99;98888.56;10287874;28;977;-72
2024/03/15 02:54:57;;;;;;;;;;;;;;;18.37;46.13;98883.41;10287052;28;1960;-72
2024/03/15 02:59:55;;;;;;;;;;;;;;;18.36;45.99;98879.88;10287213;28;830;-72
2024/03/15 03:04:51;;;;;;;;;;;;;;;18.36;45.97;98889.59;10287619;28;873;-72
2024/03/15 03:09:47;;;;;;;;;;;;;;;18.34;45.89;98886.22;10286773;28;931;-72
2024/03/15 03:14:45;;;;;;;;;;;;;;;18.33;45.89;98902.97;10287568;28;1963;-72
2024/03/15 03:19:41;;;;;;;;;;;;;;;18.33;46.03;98898.53;10285493;28;1522;-72
2024/03/15 03:24:37;;;;;;;;;;;;;;;18.31;45.95;98896.94;10286422;28;798;-72
2024/03/15 03:29:33;;;;;;;;;;;;;;;18.30;45.80;98889.97;10286073;28;1133;-72
2024/03/15 03:34:29;;;;;;;;;;;;;;;18.29;46.07;98888.28;10285939;28;1977;-72
2024/03/15 03:39:25;;;;;;;;;;;;;;;18.27;45.86;98891.00;10285699;28;813;-72
2024/03/15 03:44:21;;;;;;;;;;;;;;;18.27;45.86;98890.16;10285593;28;873;-72
2024/03/15 03:49:18;;;;;;;;;;;;;;;18.25;45.92;98889.38;10285446;28;937;-72
2024/03/15 03:54:14;;;;;;;;;;;;;;;18.24;45.90;98888.53;10286064;28;1907;-72
2024/03/15 03:59:10;;;;;;;;;;;;;;;18.23;46.07;98896.53;10285128;28;913;-72
2024/03/15 04:04:06;;;;;;;;;;;;;;;18.23;45.94;98888.63;10285051;28;830;-72
2024/03/15 04:09:02;;;;;;;;;;;;;;;18.20;45.88;98888.81;10285348;28;790;-72
2024/03/15 04:13:58;;;;;;;;;;;;;;;18.20;46.08;98887.00;10284697;28;1951;-72
2024/03/15 04:18:54;;;;;;;;;;;;;;;18.18;45.83;98881.84;10284005;28;901;-72
2024/03/15 04:23:50;;;;;;;;;;;;;;;18.17;46.12;98880.13;10284546;28;918;-72
2024/03/15 04:28:46;;;;;;;;;;;;;;;18.16;46.13;98883.72;10284914;28;1385;-72
2024/03/15 04:33:41;;;;;;;;;;;;;;;18.15;46.19;98879.38;10284266;28;1922;-72
2024/03/15 04:38:37;;;;;;;;;;;;;;;18.14;45.91;98875.03;10284863;28;856;-72
2024/03/15 04:43:33;;;;;;;;;;;;;;;18.15;45.90;98875.88;10283529;28;893;-72
2024/03/15 04:48:29;;;;;;;;;;;;;;;18.12;45.92;98871.63;10284688;28;857;-72
2024/03/15 04:53:25;;;;;;;;;;;;;;;18.12;46.02;98871.63;10284447;28;1957;-72
2024/03/15 04:58:21;;;;;;;;;;;;;;;18.11;46.13;98869.09;10285037;28;854;-72
2024/03/15 05:03:17;;;;;;;;;;;;;;;18.11;45.80;98869.09;10283789;28;861;-72
2024/03/15 05:08:13;;;;;;;;;;;;;;;18.11;45.90;98872.59;10284300;28;874;-72
2024/03/15 05:13:09;;;;;;;;;;;;;;;18.11;45.81;98861.19;10283828;28;1951;-72
2024/03/15 05:18:05;;;;;;;;;;;;;;;18.12;46.15;98870.78;10283447;28;931;-72
2024/03/15 05:23:00;;;;;;;;;;;;;;;18.12;45.74;98855.81;10283701;28;940;-71
2024/03/15 05:27:56;;;;;;;;;;;;;;;18.14;45.98;98869.75;10282543;28;1216;-72
2024/03/15 05:32:52;;;;;;;;;;;;;;;18.17;46.03;98871.38;10286582;28;1976;-72
2024/03/15 05:37:48;;;;;;;;;;;;;;;18.17;45.84;98874.84;10291182;28;759;-72
2024/03/15 05:42:44;;;;;;;;;;;;;;;18.20;46.00;98880.91;10290219;28;850;-72
2024/03/15 05:47:40;;;;;;;;;;;;;;;18.22;45.83;98885.13;10290256;28;942;-72
2024/03/15 05:52:36;;;;;;;;;;;;;;;18.25;45.96;98886.75;10290472;28;1953;-72
2024/03/15 05:57:32;;;;;;;;;;;;;;;18.26;45.86;98888.44;10296459;28;1133;-71
2024/03/15 06:02:28;;;;;;;;;;;;;;;18.28;45.98;98895.31;10329263;28;885;-71
2024/03/15 06:07:24;;;;;;;;;;;;;;;18.30;45.92;98901.38;10329879;28;961;-72
2024/03/15 06:12:20;;;;;;;;;;;;;;;18.33;45.98;98905.59;10329075;28;818;-72
2024/03/15 06:17:16;;;;;;;;;;;;;;;18.34;45.81;98902.91;10329425;28;1886;-76
2024/03/15 06:22:13;;;;;;;;;;;;;;;18.35;46.17;98903.75;10328884;28;961;-73
2024/03/15 06:27:13;;;;;;;;;;;;;;;18.37;45.96;98920.34;10329113;28;766;-72
2024/03/15 06:32:14;;;;;;;;;;;;;;;18.38;46.04;98925.50;10327930;28;1495;-75
2024/03/15 06:37:14;;;;;;;;;;;;;;;18.40;46.00;98922.78;10330104;28;1965;-72
2024/03/15 06:47:28;;;;;;;;;;;;;;;18.42;45.91;98917.41;10327995;28;620;-72
2024/03/15 06:52:36;;;;;;;;;;;;;;;18.44;45.94;98934.00;10328361;28;834;-72
2024/03/15 06:57:32;;;;;;;;;;;;;;;18.45;45.88;98941.00;10327473;28;977;-72
2024/03/15 07:02:29;;;;;;;;;;;;;;;18.46;45.94;98938.25;10328463;28;818;-72
2024/03/15 07:07:26;;;;;;;;;;;;;;;18.46;46.06;98938.25;10327641;28;914;-72
2024/03/15 07:12:22;;;;;;;;;;;;;;;18.45;46.04;98941.84;10328060;28;836;-72
2024/03/15 07:17:18;;;;;;;;;;;;;;;18.46;46.09;98943.53;10327181;28;1952;-72
2024/03/15 07:22:15;;;;;;;;;;;;;;;18.46;46.14;98948.81;10327083;28;894;-72
2024/03/15 07:27:11;;;;;;;;;;;;;;;18.46;46.16;98945.31;10326897;28;965;-72
2024/03/15 07:32:07;;;;;;;;;;;;;;;18.44;46.07;98950.69;10327669;28;1277;-72
2024/03/15 07:37:03;;;;;;;;;;;;;;;18.45;46.10;98941.00;10327101;28;1917;-72
2024/03/15 07:41:59;;;;;;;;;;;;;;;18.45;46.15;98947.13;10326426;28;805;-72
2024/03/15 07:46:58;;;;;;;;;;;;;;;18.46;45.97;98956.72;10326118;28;1155;-72
2024/03/15 07:51:54;;;;;;;;;;;;;;;18.47;46.11;98960.19;10326695;28;917;-77
2024/03/15 07:56:52;;;;;;;;;;;;;;;18.47;46.19;98961.06;10323798;28;1894;-73
2024/03/15 08:01:48;;;;;;;;;;;;;;;18.47;46.21;98974.28;10325817;28;830;-70
2024/03/15 08:06:44;;;;;;;;;;;;;;;18.49;46.16;98975.00;10324746;28;893;-72
2024/03/15 08:11:42;;;;;;;;;;;;;;;18.49;46.26;98979.44;10326562;28;862;-72
2024/03/15 08:16:41;;;;;;;;;;;;;;;18.49;46.11;98963.59;10324887;28;1930;-72
2024/03/15 08:21:37;;;;;;;;;;;;;;;18.51;46.05;98961.72;10325162;28;1013;-72
2024/03/15 08:26:33;;;;;;;;;;;;;;;18.52;46.04;98964.28;10325515;28;806;-72
2024/03/15 08:31:32;;;;;;;;;;;;;;;18.52;46.10;98964.28;10324930;28;1470;-72
2024/03/15 08:36:28;;;;;;;;;;;;;;;18.54;45.90;98972.09;10324990;28;1968;-72
2024/03/15 08:41:24;;;;;;;;;;;;;;;18.54;46.11;98977.38;10323718;28;1022;-72
2024/03/15 08:46:20;;;;;;;;;;;;;;;18.55;46.24;98982.59;10325283;28;861;-73
2024/03/15 08:51:16;;;;;;;;;;;;;;;18.55;46.28;98987.88;10324752;28;902;-72
2024/03/15 08:56:12;;;;;;;;;;;;;;;18.53;46.11;98997.66;10325061;28;1949;-78
2024/03/15 09:01:08;;;;;;;;;;;;;;;18.54;46.23;98999.34;10325063;28;848;-72
2024/03/15 09:06:06;;;;;;;;;;;;;;;18.56;46.17;99008.03;10325342;28;803;-71
2024/03/15 09:11:02;;;;;;;;;;;;;;;18.57;46.29;99008.88;10332921;28;891;-80
2024/03/15 09:15:58;;;;;;;;;;;;;;;18.57;46.10;99009.72;10331639;28;1886;-73
2024/03/15 09:20:54;;;;;;;;;;;;;;;18.58;46.36;99005.31;10331838;28;841;-71
2024/03/15 09:25:50;;;;;;;;;;;;;;;18.60;46.13;99003.41;10331670;28;937;-73
2024/03/15 09:30:49;;;;;;;;;;;;;;;18.61;46.38;99007.75;10332111;28;1097;-72
2024/03/15 09:35:46;;;;;;;;;;;;;;;18.61;46.32;99008.59;10331893;28;1910;-72
2024/03/15 09:40:42;;;;;;;;;;;;;;;18.63;46.44;99013.81;10331861;28;826;-73
2024/03/15 09:45:38;;;;;;;;;;;;;;;18.64;46.47;99015.50;10330980;28;876;-73
2024/03/15 09:50:35;;;;;;;;;;;;;;;18.65;46.34;99021.63;10331424;28;905;-77
2024/03/15 09:55:31;;;;;;;;;;;;;;;18.65;46.37;99008.41;10331101;28;1890;-78
2024/03/15 10:00:27;;;;;;;;;;;;;;;18.65;46.36;99011.06;10331044;28;855;-78
2024/03/15 10:05:23;;;;;;;;;;;;;;;18.67;46.58;99011.81;10330240;28;869;-77
2024/03/15 10:10:19;;;;;;;;;;;;;;;18.67;46.50;99017.09;10330246;28;874;-73
2024/03/15 10:15:14;;;;;;;;;;;;;;;18.69;46.49;99009.97;10330924;28;1890;-75
2024/03/15 10:20:11;;;;;;;;;;;;;;;18.69;46.48;99012.59;10330483;28;799;-72
2024/03/15 10:25:07;;;;;;;;;;;;;;;18.70;46.58;99003.72;10329485;28;950;-71
2024/03/15 10:30:02;;;;;;;;;;;;;;;18.71;46.39;99003.66;10330200;28;1144;-73
2024/03/15 10:34:58;;;;;;;;;;;;;;;18.71;46.62;99010.72;10329615;28;1953;-72
2024/03/15 10:39:54;;;;;;;;;;;;;;;18.71;46.33;99005.44;10328911;28;929;-72
2024/03/15 10:44:50;;;;;;;;;;;;;;;18.71;46.43;99008.94;10329319;28;845;-72
2024/03/15 10:49:46;;;;;;;;;;;;;;;18.73;46.41;99004.41;10329091;28;814;-74
2024/03/15 10:54:42;;;;;;;;;;;;;;;18.74;46.32;98995.53;10328149;28;1881;-72
2024/03/15 10:59:38;;;;;;;;;;;;;;;18.74;46.24;99003.47;10326343;28;1184;-72
2024/03/15 11:04:34;;;;;;;;;;;;;;;18.76;46.30;98998.97;10310414;28;781;-72
2024/03/15 11:09:30;;;;;;;;;;;;;;;18.76;46.30;99006.06;10327025;28;869;-72
2024/03/15 11:14:26;;;;;;;;;;;;;;;18.75;46.07;98991.13;10327426;28;1897;-72
2024/03/15 11:19:22;;;;;;;;;;;;;;;18.77;46.25;98995.38;10327450;28;765;-72
2024/03/15 11:24:18;;;;;;;;;;;;;;;18.76;46.27;98984.94;10327009;28;882;-72
2024/03/15 11:29:14;;;;;;;;;;;;;;;18.76;46.31;98995.50;10326580;28;1430;-71
2024/03/15 11:34:10;;;;;;;;;;;;;;;18.74;46.30;98995.53;10326714;28;1909;-72
2024/03/15 11:39:06;;;;;;;;;;;;;;;18.73;46.34;98999.13;10326501;28;855;-72
2024/03/15 11:44:04;;;;;;;;;;;;;;;18.74;46.10;98992.06;10326362;28;923;-72
2024/03/15 11:48:59;;;;;;;;;;;;;;;18.76;46.13;98996.34;10326957;28;862;-75
2024/03/15 11:53:55;;;;;;;;;;;;;;;18.77;46.13;98991.91;10326024;28;1951;-76
2024/03/15 11:58:51;;;;;;;;;;;;;;;18.78;46.39;98988.31;10326549;28;857;-74
2024/03/15 12:03:47;;;;;;;;;;;;;;;18.81;46.50;98982.84;10325839;28;1201;-76
2024/03/15 12:08:43;;;;;;;;;;;;;;;18.82;46.58;98971.34;10326301;28;853;-76
2024/03/15 12:13:39;;;;;;;;;;;;;;;18.85;46.44;98965.03;10326044;28;1890;-76
2024/03/15 12:18:35;;;;;;;;;;;;;;;18.85;46.49;98967.69;10326085;28;830;-76
2024/03/15 12:23:31;;;;;;;;;;;;;;;18.85;46.31;98965.88;10325388;28;780;-76
2024/03/15 12:28:27;;;;;;;;;;;;;;;18.83;46.48;98962.47;10325086;28;1101;-76
2024/03/15 12:33:22;;;;;;;;;;;;;;;18.82;46.63;98966.06;10324554;28;1910;-76
2024/03/15 12:38:20;;;;;;;;;;;;;;;18.82;46.71;98963.44;10325887;28;818;-75
2024/03/15 12:43:16;;;;;;;;;;;;;;;18.81;46.53;98974.91;10329538;28;767;-75
2024/03/15 12:48:12;;;;;;;;;;;;;;;18.79;46.63;98993.50;10333887;28;842;-76
2024/03/15 12:53:09;;;;;;;;;;;;;;;18.81;46.76;98982.84;10332438;28;1958;-76
2024/03/15 12:58:05;;;;;;;;;;;;;;;18.86;46.66;98975.50;10333531;28;874;-75
2024/03/15 13:03:01;;;;;;;;;;;;;;;18.89;46.54;98972.69;10332599;28;970;-75
2024/03/15 13:07:57;;;;;;;;;;;;;;;18.95;46.53;98959.13;10333053;28;829;-76
2024/03/15 13:12:55;;;;;;;;;;;;;;;18.97;46.54;98951.94;10331590;28;1965;-76
2024/03/15 13:17:55;;;;;;;;;;;;;;;18.95;46.59;98951.19;10332010;28;908;-75
2024/03/15 13:22:54;;;;;;;;;;;;;;;19.00;46.55;98946.47;10332477;28;931;-74
2024/03/15 13:27:50;;;;;;;;;;;;;;;19.13;46.54;98940.44;10332380;28;1022;-72
2024/03/15 13:32:46;;;;;;;;;;;;;;;19.19;46.44;98938.25;10332547;28;1147;-73
2024/03/15 13:37:42;;;;;;;;;;;;;;;19.10;46.67;98945.91;10331407;28;1906;-73
2024/03/15 13:42:41;;;;;;;;;;;;;;;19.04;46.90;98936.56;10331115;28;949;-72
2024/03/15 13:47:37;;;;;;;;;;;;;;;19.11;46.60;98924.69;10330919;28;901;-73
2024/03/15 13:52:33;;;;;;;;;;;;;;;19.25;46.29;98929.09;10330892;28;1626;-73
2024/03/15 13:57:29;;;;;;;;;;;;;;;19.17;46.58;98920.81;10330615;28;1890;-73
2024/03/15 14:02:25;;;;;;;;;;;;;;;19.11;47.16;98929.13;10330306;28;758;-74
2024/03/15 14:07:21;;;;;;;;;;;;;;;19.07;46.99;98920.53;10329968;28;771;-74
2024/03/15 14:12:17;;;;;;;;;;;;;;;19.02;47.06;98909.38;10330372;28;855;-74
2024/03/15 14:17:14;;;;;;;;;;;;;;;19.00;47.00;98900.75;10328875;28;1943;-74
2024/03/15 14:22:11;;;;;;;;;;;;;;;18.99;47.04;98901.66;10329333;28;923;-74
2024/03/15 14:27:07;;;;;;;;;;;;;;;18.96;46.98;98897.41;10329178;28;965;-73
2024/03/15 14:32:04;;;;;;;;;;;;;;;18.96;46.94;98902.69;10328686;28;1231;-74
2024/03/15 14:37:00;;;;;;;;;;;;;;;18.96;46.89;98902.69;10328694;28;1955;-74
2024/03/15 14:41:56;;;;;;;;;;;;;;;18.97;46.85;98893.84;10328015;28;896;-74
2024/03/15 14:46:54;;;;;;;;;;;;;;;18.96;47.01;98894.78;10329152;28;859;-74
2024/03/15 14:51:50;;;;;;;;;;;;;;;18.94;46.99;98893.19;10328302;28;879;-74
2024/03/15 14:56:46;;;;;;;;;;;;;;;18.92;46.92;98893.28;10327927;28;1906;-73
2024/03/15 15:01:42;;;;;;;;;;;;;;;18.91;46.91;98890.72;10327865;28;810;-74
2024/03/15 15:06:39;;;;;;;;;;;;;;;18.92;46.82;98908.28;10326735;28;779;-79
2024/03/15 15:11:35;;;;;;;;;;;;;;;19.17;46.56;98928.75;10327426;28;820;-74
2024/03/15 15:16:32;;;;;;;;;;;;;;;19.32;46.21;98922.50;10327746;28;1943;-74
2024/03/15 15:21:28;;;;;;;;;;;;;;;19.38;46.17;98911.53;10328264;28;822;-74
2024/03/15 15:26:24;;;;;;;;;;;;;;;19.42;46.26;98913.06;10326830;28;775;-74
2024/03/15 15:31:20;;;;;;;;;;;;;;;19.36;46.53;98902.88;10327070;28;1114;-74
2024/03/15 15:36:16;;;;;;;;;;;;;;;19.50;46.09;98902.00;10327126;28;1905;-74
2024/03/15 15:41:12;;;;;;;;;;;;;;;19.56;46.17;98912.16;10326243;28;883;-74
2024/03/15 15:46:10;;;;;;;;;;;;;;;19.47;46.51;98905.69;10326073;28;947;-74
2024/03/15 15:51:10;;;;;;;;;;;;;;;19.35;46.66;98929.38;10327361;28;884;-74
2024/03/15 15:56:07;;;;;;;;;;;;;;;19.28;46.63;98920.97;10325695;28;1941;-74
2024/03/15 16:01:03;;;;;;;;;;;;;;;19.24;46.61;98920.34;10327181;28;843;-74
2024/03/15 16:05:58;;;;;;;;;;;;;;;19.22;46.62;98926.66;10326205;28;826;-74
2024/03/15 16:10:54;;;;;;;;;;;;;;;19.18;46.67;98989.41;10326013;28;893;-77
2024/03/15 16:15:50;;;;;;;;;;;;;;;19.17;46.67;98992.13;10325024;28;1939;-74
2024/03/15 16:20:46;;;;;;;;;;;;;;;19.16;46.66;98998.38;10325221;28;838;-74
2024/03/15 16:25:42;;;;;;;;;;;;;;;19.14;46.63;99013.47;10325153;28;774;-74
2024/03/15 16:30:38;;;;;;;;;;;;;;;19.11;46.56;99026.88;10324773;28;1292;-74
2024/03/15 16:35:34;;;;;;;;;;;;;;;19.09;46.74;99021.66;10325423;28;1905;-74
2024/03/15 16:40:30;;;;;;;;;;;;;;;19.07;46.79;99025.34;10325114;28;901;-74
2024/03/15 16:45:26;;;;;;;;;;;;;;;19.04;46.62;99026.38;10325333;28;1008;-74
2024/03/15 16:50:24;;;;;;;;;;;;;;;19.01;46.70;99035.31;10324717;28;822;-75
2024/03/15 16:55:21;;;;;;;;;;;;;;;19.00;46.70;99019.59;10324518;28;1886;-75
2024/03/15 17:00:17;;;;;;;;;;;;;;;19.00;46.69;99011.66;10324419;28;815;-74
2024/03/15 17:05:13;;;;;;;;;;;;;;;18.99;46.75;99002.91;10324334;28;918;-74
2024/03/15 17:10:10;;;;;;;;;;;;;;;18.98;46.61;99002.97;10324199;28;882;-74
2024/03/15 17:15:09;;;;;;;;;;;;;;;18.97;46.79;99001.28;10324122;28;1898;-74
2024/03/15 17:20:05;;;;;;;;;;;;;;;18.97;46.83;99023.25;10324660;28;848;-74
2024/03/15 17:25:01;;;;;;;;;;;;;;;18.98;46.88;99027.59;10324117;28;933;-74
2024/03/15 17:29:56;;;;;;;;;;;;;;;18.97;46.99;99031.19;10329199;28;1398;-75
2024/03/15 17:34:52;;;;;;;;;;;;;;;18.97;46.95;99044.38;10330570;28;1913;-74
2024/03/15 17:39:49;;;;;;;;;;;;;;;18.99;47.05;99046.91;10331790;28;855;-75
2024/03/15 17:44:45;;;;;;;;;;;;;;;18.98;46.98;99039.94;10330877;28;824;-75
2024/03/15 17:49:40;;;;;;;;;;;;;;;18.97;47.07;99044.38;10330665;28;822;-75
2024/03/15 17:54:36;;;;;;;;;;;;;;;18.98;47.15;99059.28;10331156;28;1975;-76
2024/03/15 17:59:32;;;;;;;;;;;;;;;18.98;46.97;99064.56;10331414;28;953;-76
2024/03/15 18:04:28;;;;;;;;;;;;;;;18.99;47.00;99063.63;10330184;28;882;-75
2024/03/15 18:09:24;;;;;;;;;;;;;;;18.99;47.16;99063.63;10331347;28;846;-76
2024/03/15 18:14:21;;;;;;;;;;;;;;;18.99;47.16;99062.75;10330306;28;1893;-75
2024/03/15 18:19:17;;;;;;;;;;;;;;;18.99;46.91;99070.69;10329521;28;993;-76
2024/03/15 18:24:13;;;;;;;;;;;;;;;19.00;47.12;99067.13;10329948;28;1140;-78
2024/03/15 18:29:09;;;;;;;;;;;;;;;19.00;47.12;99065.31;10329818;28;1097;-76
2024/03/15 18:34:08;;;;;;;;;;;;;;;18.99;47.06;99058.34;10329603;28;1914;-76
2024/03/15 18:39:08;;;;;;;;;;;;;;;18.99;47.16;99071.56;10328752;28;883;-76
2024/03/15 18:44:04;;;;;;;;;;;;;;;19.00;47.03;99060.03;10329258;28;930;-76
2024/03/15 18:49:00;;;;;;;;;;;;;;;19.01;47.04;99050.31;10329420;28;937;-76
2024/03/15 18:53:56;;;;;;;;;;;;;;;19.01;46.89;99051.16;10328558;28;1948;-76
2024/03/15 18:58:52;;;;;;;;;;;;;;;19.01;46.93;99060.88;10327960;28;973;-77
2024/03/15 19:03:49;;;;;;;;;;;;;;;19.01;47.05;99053.81;10327810;28;997;-77
2024/03/15 19:08:47;;;;;;;;;;;;;;;19.01;46.90;99067.00;10328320;28;1586;-77
2024/03/15 19:13:45;;;;;;;;;;;;;;;19.02;47.05;99071.38;10326795;28;1956;-76
2024/03/15 19:18:41;;;;;;;;;;;;;;;19.02;46.98;99087.22;10327766;28;858;-76
2024/03/15 19:23:38;;;;;;;;;;;;;;;19.02;46.92;99097.78;10327072;28;822;-77
2024/03/15 19:28:34;;;;;;;;;;;;;;;19.03;47.00;99096.84;10326595;28;1195;-76
2024/03/15 19:33:30;;;;;;;;;;;;;;;19.03;46.92;99096.84;10327155;28;1906;-76
2024/03/15 19:38:26;;;;;;;;;;;;;;;19.04;46.97;99093.25;10326491;28;842;-76
2024/03/15 19:43:23;;;;;;;;;;;;;;;19.04;46.83;99087.97;10326260;28;847;-76
2024/03/15 19:48:20;;;;;;;;;;;;;;;19.03;46.83;99088.91;10309428;28;1730;-76
2024/03/15 19:53:16;;;;;;;;;;;;;;;19.04;46.88;99092.41;10325586;28;1917;-76
2024/03/15 19:58:12;;;;;;;;;;;;;;;19.05;46.92;99092.31;10325729;28;961;-76
2024/03/15 20:03:07;;;;;;;;;;;;;;;19.05;46.84;99099.41;10325695;28;938;-76
2024/03/15 20:08:03;;;;;;;;;;;;;;;19.05;46.84;99100.25;10325543;28;926;-77
2024/03/15 20:12:59;;;;;;;;;;;;;;;19.06;47.01;99101.09;10326187;28;862;-76
2024/03/15 20:17:55;;;;;;;;;;;;;;;19.07;46.86;99091.38;10325305;28;1890;-76
2024/03/15 20:22:51;;;;;;;;;;;;;;;19.06;46.79;99085.25;10324699;28;878;-77
2024/03/15 20:27:47;;;;;;;;;;;;;;;19.05;46.75;99081.75;10325420;28;857;-76
2024/03/15 20:32:43;;;;;;;;;;;;;;;19.05;46.97;99084.41;10325040;28;1330;-76
2024/03/15 20:37:39;;;;;;;;;;;;;;;19.06;46.84;99082.59;10324874;28;1901;-77
2024/03/15 20:42:35;;;;;;;;;;;;;;;19.05;46.68;99084.41;10324896;28;765;-77
2024/03/15 20:47:31;;;;;;;;;;;;;;;19.04;46.83;99085.31;10324789;28;802;-77
2024/03/15 20:52:27;;;;;;;;;;;;;;;19.04;46.80;99081.84;10325305;28;775;-77
2024/03/15 20:57:23;;;;;;;;;;;;;;;19.02;46.81;99089.00;10324617;28;1898;-77
2024/03/15 21:02:18;;;;;;;;;;;;;;;19.04;46.68;99097.69;10326367;28;806;-77
2024/03/15 21:07:17;;;;;;;;;;;;;;;19.02;46.78;99094.28;10332954;28;885;-76
2024/03/15 21:12:13;;;;;;;;;;;;;;;19.00;46.83;99091.75;10333285;28;850;-74
2024/03/15 21:17:09;;;;;;;;;;;;;;;19.01;46.58;99095.22;10331583;28;1965;-76
2024/03/15 21:22:05;;;;;;;;;;;;;;;18.99;46.65;99097.97;10331860;28;992;-77
2024/03/15 21:27:01;;;;;;;;;;;;;;;18.99;46.65;99097.97;10331848;28;775;-77
2024/03/15 21:31:56;;;;;;;;;;;;;;;18.99;46.52;99097.97;10331784;28;1190;-77
2024/03/15 21:36:52;;;;;;;;;;;;;;;18.98;46.53;99100.69;10331422;28;1913;-76
2024/03/15 21:41:49;;;;;;;;;;;;;;;18.98;46.63;99103.34;10332043;28;795;-76
2024/03/15 21:46:47;;;;;;;;;;;;;;;18.97;46.73;99104.28;10331752;28;960;-77
2024/03/15 21:51:43;;;;;;;;;;;;;;;18.96;46.57;99105.22;10331064;28;1723;-77
2024/03/15 21:56:39;;;;;;;;;;;;;;;18.95;46.58;99107.00;10330742;28;1941;-77
2024/03/15 22:01:35;;;;;;;;;;;;;;;18.93;46.49;99124.72;10330559;28;866;-76
2024/03/15 22:06:42;;;;;;;;;;;;;;;18.92;46.58;99123.03;10331520;28;854;-77
2024/03/15 22:11:39;;;;;;;;;;;;;;;18.91;46.68;99126.59;10330198;28;824;-76
2024/03/15 22:16:35;;;;;;;;;;;;;;;18.89;46.57;99131.13;10329655;28;1944;-77
2024/03/15 22:21:31;;;;;;;;;;;;;;;18.89;46.55;99138.19;10330092;28;838;-77
2024/03/15 22:26:27;;;;;;;;;;;;;;;18.85;46.61;99129.59;10330288;28;846;-77
2024/03/15 22:31:24;;;;;;;;;;;;;;;18.84;46.46;99117.34;10330482;28;1349;-77
2024/03/15 22:36:20;;;;;;;;;;;;;;;18.81;46.56;99122.78;10328552;28;1913;-77
2024/03/15 22:41:15;;;;;;;;;;;;;;;18.80;46.40;99126.38;10328951;28;931;-77
2024/03/15 22:46:11;;;;;;;;;;;;;;;18.78;46.50;99128.25;10329454;28;830;-77
2024/03/15 22:51:08;;;;;;;;;;;;;;;18.77;46.49;99131.81;10328582;28;876;-77
2024/03/15 22:56:03;;;;;;;;;;;;;;;18.74;46.53;99127.53;10328341;28;1901;-77
2024/03/15 23:01:05;;;;;;;;;;;;;;;18.73;46.38;99132.91;10328298;28;884;-77
2024/03/15 23:06:01;;;;;;;;;;;;;;;18.70;46.34;99136.56;10328878;28;834;-77
2024/03/15 23:10:57;;;;;;;;;;;;;;;18.69;46.63;99140.16;10327774;28;921;-76
2024/03/15 23:15:54;;;;;;;;;;;;;;;18.67;46.58;99126.19;10327572;28;1901;-77
2024/03/15 23:20:50;;;;;;;;;;;;;;;18.65;46.54;99130.69;10327300;28;853;-76
2024/03/15 23:25:46;;;;;;;;;;;;;;;18.63;46.59;99135.22;10326507;28;777;-77
2024/03/15 23:30:44;;;;;;;;;;;;;;;18.60;46.42;99136.25;10327117;28;1235;-76
2024/03/15 23:35:40;;;;;;;;;;;;;;;18.59;46.81;99134.53;10327643;28;1922;-77
2024/03/15 23:40:37;;;;;;;;;;;;;;;18.58;46.55;99139.91;10326701;28;853;-77
2024/03/15 23:45:33;;;;;;;;;;;;;;;18.56;46.48;99144.41;10326487;28;831;-76
2024/03/15 23:50:29;;;;;;;;;;;;;;;18.52;46.80;99135.84;10326451;28;1028;-77
2024/03/15 23:55:25;;;;;;;;;;;;;;;18.51;46.78;99141.19;10326165;28;1901;-76
